createdAt,value
2022-11-03T00:02:08.225Z,61.74
2022-11-03T00:04:35.991Z,61.32
2022-11-03T00:07:03.339Z,61.02
2022-11-03T00:09:31.960Z,61.22
2022-11-03T00:11:59.646Z,61.47
2022-11-03T00:14:26.953Z,61.40
2022-11-03T00:16:54.820Z,60.95
2022-11-03T00:19:22.401Z,60.50
2022-11-03T00:21:50.110Z,61.53
2022-11-03T00:24:17.496Z,60.89
2022-11-03T00:26:45.136Z,62.40
2022-11-03T00:29:14.595Z,62.63
2022-11-03T00:31:45.378Z,62.05
2022-11-03T00:34:13.053Z,62.40
2022-11-03T00:36:44.891Z,62.80
2022-11-03T00:39:13.107Z,62.32
2022-11-03T00:41:40.918Z,62.47
2022-11-03T00:44:10.771Z,62.08
2022-11-03T00:46:38.889Z,61.95
2022-11-03T00:49:06.582Z,61.63
2022-11-03T00:51:35.177Z,62.78
2022-11-03T00:54:04.934Z,62.69
2022-11-03T00:56:38.101Z,63.90
2022-11-03T00:59:07.503Z,63.82
2022-11-03T01:01:46.345Z,63.25
2022-11-03T01:04:36.874Z,62.74
2022-11-03T01:07:06.285Z,63.33
2022-11-03T01:09:33.923Z,63.54
2022-11-03T01:12:07.345Z,63.45
2022-11-03T01:14:49.681Z,61.77
2022-11-03T01:17:24.967Z,63.63
2022-11-03T01:19:53.543Z,61.93
2022-11-03T01:22:22.285Z,63.75
2022-11-03T01:24:51.865Z,63.72
2022-11-03T01:27:22.617Z,63.77
2022-11-03T01:29:49.873Z,62.85
2022-11-03T01:32:17.234Z,63.30
2022-11-03T01:34:44.870Z,63.73
2022-11-03T01:37:12.153Z,64.55
2022-11-03T01:39:39.427Z,64.05
2022-11-03T01:42:07.145Z,63.59
2022-11-03T01:44:42.146Z,63.31
2022-11-03T01:47:19.864Z,63.07
2022-11-03T01:49:59.443Z,62.95
2022-11-03T01:52:44.997Z,63.10
2022-11-03T01:55:19.938Z,63.69
2022-11-03T01:57:58.168Z,63.91
2022-11-03T02:00:25.664Z,63.56
2022-11-03T02:02:53.906Z,63.43
2022-11-03T02:05:24.585Z,62.66
2022-11-03T02:08:00.638Z,63.47
2022-11-03T02:10:28.344Z,64.00
2022-11-03T02:12:57.577Z,64.04
2022-11-03T02:15:25.258Z,64.66
2022-11-03T02:17:54.989Z,64.04
2022-11-03T02:20:29.793Z,63.57
2022-11-03T02:23:25.483Z,63.74
2022-11-03T02:25:55.216Z,63.83
2022-11-03T02:28:26.777Z,63.94
2022-11-03T02:31:10.170Z,64.43
2022-11-03T02:33:43.824Z,63.87
2022-11-03T02:36:20.736Z,63.87
2022-11-03T02:38:57.637Z,63.63
2022-11-03T02:41:26.315Z,63.98
2022-11-03T02:43:56.064Z,63.85
2022-11-03T02:46:26.000Z,64.45
2022-11-03T02:48:53.698Z,64.06
2022-11-03T02:51:20.991Z,64.27
2022-11-03T02:54:03.288Z,64.13
2022-11-03T02:56:35.580Z,64.91
2022-11-03T02:59:07.337Z,64.83
2022-11-03T03:01:47.540Z,63.96
2022-11-03T03:04:30.865Z,63.74
2022-11-03T03:07:03.215Z,64.58
2022-11-03T03:09:40.435Z,65.05
2022-11-03T03:12:10.753Z,64.41
2022-11-03T03:14:41.958Z,64.27
2022-11-03T03:17:13.444Z,64.94
2022-11-03T03:19:49.627Z,65.10
2022-11-03T03:22:25.619Z,65.42
2022-11-03T03:25:01.369Z,65.83
2022-11-03T03:27:34.469Z,64.91
2022-11-03T03:30:06.403Z,65.03
2022-11-03T03:32:39.857Z,64.57
2022-11-03T03:35:11.316Z,64.87
2022-11-03T03:37:43.177Z,65.31
2022-11-03T03:40:15.764Z,65.61
2022-11-03T03:42:45.375Z,65.79
2022-11-03T03:45:13.741Z,65.14
2022-11-03T03:47:41.317Z,66.14
2022-11-03T03:50:09.062Z,65.40
2022-11-03T03:52:37.682Z,65.64
2022-11-03T03:55:12.736Z,66.27
2022-11-03T03:57:40.477Z,66.67
2022-11-03T04:00:10.297Z,66.31
2022-11-03T04:02:39.786Z,66.03
2022-11-03T04:05:07.620Z,65.57
2022-11-03T04:07:50.545Z,65.83
2022-11-03T04:10:22.657Z,66.14
2022-11-03T04:13:09.163Z,65.80
2022-11-03T04:15:53.368Z,65.43
2022-11-03T04:18:40.866Z,65.09
2022-11-03T04:21:30.833Z,65.47
2022-11-03T04:24:00.580Z,64.94
2022-11-03T04:26:29.490Z,65.06
2022-11-03T04:28:58.157Z,64.98
2022-11-03T04:31:29.742Z,65.59
2022-11-03T04:33:59.776Z,65.15
2022-11-03T04:36:27.053Z,64.89
2022-11-03T04:38:54.435Z,65.02
2022-11-03T04:41:33.322Z,65.71
2022-11-03T04:44:01.321Z,65.55
2022-11-03T04:46:31.355Z,66.81
2022-11-03T04:49:00.965Z,66.99
2022-11-03T04:51:33.607Z,67.96
2022-11-03T04:54:07.492Z,68.33
2022-11-03T04:56:35.203Z,67.54
2022-11-03T04:59:03.336Z,67.18
2022-11-03T05:01:30.973Z,67.21
2022-11-03T05:03:59.016Z,67.07
2022-11-03T05:09:18.143Z,66.05
2022-11-03T05:11:47.052Z,66.05
2022-11-03T05:14:21.595Z,66.83
2022-11-03T05:16:51.213Z,67.58
2022-11-03T05:19:23.461Z,67.72
2022-11-03T05:21:52.943Z,67.66
2022-11-03T05:24:21.428Z,67.68
2022-11-03T05:26:49.894Z,67.25
2022-11-03T05:29:37.062Z,67.28
2022-11-03T05:32:31.090Z,67.51
2022-11-03T05:34:59.015Z,67.47
2022-11-03T05:37:35.527Z,68.01
2022-11-03T05:40:22.273Z,67.56
2022-11-03T05:43:14.844Z,68.14
2022-11-03T05:45:43.471Z,68.01
2022-11-03T05:48:21.453Z,67.95
2022-11-03T05:50:51.581Z,67.03
2022-11-03T05:53:39.825Z,66.36
2022-11-03T05:56:17.246Z,67.36
2022-11-03T05:58:46.505Z,67.74
2022-11-03T06:01:23.799Z,67.70
2022-11-03T06:03:52.855Z,67.27
2022-11-03T06:09:14.514Z,64.90
2022-11-03T06:11:44.089Z,64.90
2022-11-03T06:14:24.917Z,66.15
2022-11-03T06:17:07.546Z,67.05
2022-11-03T06:19:38.330Z,66.51
2022-11-03T06:22:33.389Z,67.36
2022-11-03T06:25:32.047Z,67.00
2022-11-03T06:28:03.854Z,66.14
2022-11-03T06:30:36.858Z,66.53
2022-11-03T06:33:13.983Z,65.61
2022-11-03T06:35:42.370Z,65.84
2022-11-03T06:38:21.864Z,65.75
2022-11-03T06:40:52.138Z,65.90
2022-11-03T06:43:31.773Z,66.37
2022-11-03T06:46:01.472Z,65.63
2022-11-03T06:48:30.364Z,65.04
2022-11-03T06:50:59.403Z,64.78
2022-11-03T06:53:30.576Z,64.06
2022-11-03T06:55:59.999Z,62.25
2022-11-03T06:58:36.921Z,62.26
2022-11-03T07:01:22.620Z,61.83
2022-11-03T07:03:53.431Z,61.41
2022-11-03T07:09:26.290Z,57.64
2022-11-03T07:11:58.504Z,57.64
2022-11-03T07:14:29.251Z,58.85
2022-11-03T07:17:15.923Z,60.54
2022-11-03T07:19:46.084Z,59.55
2022-11-03T07:22:25.804Z,59.57
2022-11-03T07:24:59.856Z,59.02
2022-11-03T07:27:35.845Z,59.06
2022-11-03T07:30:22.892Z,59.28
2022-11-03T07:32:54.772Z,58.15
2022-11-03T07:36:00.421Z,57.96
2022-11-03T07:38:24.609Z,57.54
2022-11-03T07:40:53.581Z,57.19
2022-11-03T07:43:30.650Z,57.09
2022-11-03T07:46:02.249Z,57.24
2022-11-03T07:48:40.519Z,56.23
2022-11-03T07:51:41.387Z,55.27
2022-11-03T07:54:14.058Z,54.44
2022-11-03T07:56:55.074Z,53.81
2022-11-03T07:59:27.266Z,52.79
2022-11-03T08:01:58.094Z,52.06
2022-11-03T08:04:30.385Z,50.44
2022-11-03T08:06:58.075Z,51.38
2022-11-03T08:09:27.294Z,51.05
2022-11-03T08:11:55.519Z,49.77
2022-11-03T08:14:22.982Z,49.24
2022-11-03T08:16:51.915Z,48.77
2022-11-03T08:19:19.209Z,48.32
2022-11-03T08:21:47.054Z,48.26
2022-11-03T08:24:17.014Z,48.21
2022-11-03T08:26:45.022Z,47.78
2022-11-03T08:29:12.384Z,47.25
2022-11-03T08:31:41.021Z,46.19
2022-11-03T08:34:08.689Z,45.52
2022-11-03T08:36:36.559Z,44.74
2022-11-03T08:39:05.831Z,45.04
2022-11-03T08:41:34.076Z,43.41
2022-11-03T08:44:04.379Z,42.44
2022-11-03T08:46:32.924Z,42.90
2022-11-03T08:49:00.964Z,41.68
2022-11-03T08:51:28.953Z,41.17
2022-11-03T08:53:57.384Z,41.37
2022-11-03T08:56:24.880Z,40.17
2022-11-03T08:58:52.303Z,40.54
2022-11-03T09:01:20.325Z,39.60
2022-11-03T09:03:47.839Z,39.07
2022-11-03T09:06:15.229Z,38.87
2022-11-03T09:11:30.407Z,38.12
2022-11-03T09:13:58.171Z,38.41
2022-11-03T09:16:26.601Z,37.15
2022-11-03T09:18:53.996Z,37.40
2022-11-03T09:21:21.722Z,37.27
2022-11-03T09:23:49.222Z,36.53
2022-11-03T09:26:16.653Z,36.86
2022-11-03T09:28:44.437Z,36.55
2022-11-03T09:31:11.840Z,36.24
2022-11-03T09:33:39.436Z,35.05
2022-11-03T09:36:07.407Z,35.22
2022-11-03T09:38:34.901Z,35.32
2022-11-03T09:41:13.547Z,35.55
2022-11-03T09:43:55.401Z,35.83
2022-11-03T09:46:23.731Z,36.01
2022-11-03T09:48:52.858Z,35.98
2022-11-03T09:51:23.940Z,35.90
2022-11-03T09:53:51.986Z,35.57
2022-11-03T09:56:23.598Z,35.17
2022-11-03T09:58:54.436Z,34.26
2022-11-03T10:01:23.686Z,34.62
2022-11-03T10:03:52.349Z,34.60
2022-11-03T10:06:21.778Z,34.67
2022-11-03T10:08:50.133Z,34.56
2022-11-03T10:11:18.687Z,35.17
2022-11-03T10:13:49.805Z,34.37
2022-11-03T10:16:22.812Z,33.85
2022-11-03T10:18:51.239Z,33.17
2022-11-03T10:21:21.240Z,33.04
2022-11-03T10:23:51.078Z,33.07
2022-11-03T10:26:21.296Z,33.30
2022-11-03T10:29:09.452Z,33.40
2022-11-03T10:31:41.399Z,33.78
2022-11-03T10:34:37.034Z,34.00
2022-11-03T10:37:22.981Z,34.40
2022-11-03T10:39:55.861Z,33.25
2022-11-03T10:42:29.322Z,33.62
2022-11-03T10:45:19.127Z,33.24
2022-11-03T10:48:01.421Z,33.19
2022-11-03T10:50:29.635Z,32.81
2022-11-03T10:52:58.990Z,33.35
2022-11-03T10:55:27.689Z,32.63
2022-11-03T10:57:58.813Z,32.48
2022-11-03T11:00:27.395Z,32.06
2022-11-03T11:02:59.770Z,32.27
2022-11-03T11:05:27.710Z,31.85
2022-11-03T11:07:57.014Z,31.06
2022-11-03T11:10:27.334Z,31.48
2022-11-03T11:13:19.397Z,31.24
2022-11-03T11:15:51.634Z,30.98
2022-11-03T11:18:31.376Z,30.46
2022-11-03T11:21:15.664Z,30.70
2022-11-03T11:23:45.417Z,30.97
2022-11-03T11:26:25.603Z,30.90
2022-11-03T11:29:09.588Z,30.81
2022-11-03T11:31:44.200Z,30.37
2022-11-03T11:34:17.802Z,30.13
2022-11-03T11:36:47.745Z,30.20
2022-11-03T11:39:28.175Z,30.46
2022-11-03T11:42:14.866Z,30.28
2022-11-03T11:44:43.609Z,30.63
2022-11-03T11:47:32.578Z,30.65
2022-11-03T11:50:09.711Z,30.44
2022-11-03T11:53:14.214Z,30.13
2022-11-03T11:55:48.050Z,30.20
2022-11-03T11:58:35.805Z,29.68
2022-11-03T12:01:19.879Z,28.96
2022-11-03T12:03:49.359Z,29.21
2022-11-03T12:06:17.223Z,29.16
2022-11-03T12:08:45.582Z,29.49
2022-11-03T12:11:13.965Z,28.62
2022-11-03T12:13:47.801Z,28.08
2022-11-03T12:16:36.409Z,27.40
2022-11-03T12:19:35.996Z,27.66
2022-11-03T12:22:24.168Z,28.52
2022-11-03T12:25:04.571Z,27.60
2022-11-03T12:27:34.074Z,27.26
2022-11-03T12:30:04.541Z,27.13
2022-11-03T12:32:35.330Z,28.14
2022-11-03T12:35:04.387Z,27.67
2022-11-03T12:37:32.366Z,27.43
2022-11-03T12:40:04.724Z,26.74
2022-11-03T12:42:33.815Z,26.03
2022-11-03T12:45:03.443Z,26.74
2022-11-03T12:47:31.073Z,27.34
2022-11-03T12:49:58.514Z,27.28
2022-11-03T12:52:27.044Z,26.70
2022-11-03T12:54:54.506Z,26.33
2022-11-03T12:57:22.528Z,26.69
2022-11-03T12:59:52.456Z,25.96
2022-11-03T13:02:20.139Z,26.20
2022-11-03T13:04:48.017Z,25.95
2022-11-03T13:07:19.197Z,26.26
2022-11-03T13:09:52.299Z,27.04
2022-11-03T13:12:32.620Z,26.42
2022-11-03T13:15:05.961Z,25.78
2022-11-03T13:17:52.075Z,26.38
2022-11-03T13:20:21.626Z,26.22
2022-11-03T13:22:49.350Z,24.84
2022-11-03T13:25:18.160Z,25.11
2022-11-03T13:27:45.823Z,24.37
2022-11-03T13:30:16.711Z,24.09
2022-11-03T13:32:44.117Z,24.88
2022-11-03T13:35:13.989Z,22.99
2022-11-03T13:37:42.267Z,24.02
2022-11-03T13:40:29.386Z,23.84
2022-11-03T13:42:59.948Z,23.95
2022-11-03T13:45:27.677Z,23.66
2022-11-03T13:48:47.495Z,23.60
2022-11-03T13:50:42.768Z,23.40
2022-11-03T13:56:03.070Z,22.07
2022-11-03T14:01:22.341Z,21.15
2022-11-03T14:09:10.679Z,21.66
2022-11-03T14:11:57.104Z,21.66
2022-11-03T14:14:24.534Z,21.98
2022-11-03T14:16:52.309Z,22.91
2022-11-03T14:19:20.133Z,24.62
2022-11-03T14:21:47.628Z,25.80
2022-11-03T14:24:15.613Z,26.51
2022-11-03T14:26:43.471Z,27.48
2022-11-03T14:29:11.287Z,28.48
2022-11-03T14:31:39.044Z,28.94
2022-11-03T14:34:06.443Z,29.76
2022-11-03T14:36:34.176Z,30.33
2022-11-03T14:39:02.497Z,31.43
2022-11-03T14:41:48.085Z,32.67
2022-11-03T14:44:15.900Z,33.61
2022-11-03T14:46:43.403Z,33.69
2022-11-03T14:49:10.859Z,34.42
2022-11-03T14:51:38.632Z,34.55
2022-11-03T14:54:06.950Z,34.21
2022-11-03T14:56:35.668Z,35.37
2022-11-03T14:59:03.240Z,35.97
2022-11-03T15:01:32.356Z,36.41
2022-11-03T15:04:00.655Z,36.46
2022-11-03T15:06:28.928Z,36.29
2022-11-03T15:08:56.849Z,36.64
2022-11-03T15:11:24.583Z,37.48
2022-11-03T15:13:54.752Z,36.91
2022-11-03T15:16:23.684Z,37.07
2022-11-03T15:18:52.219Z,37.72
2022-11-03T15:21:23.347Z,37.83
2022-11-03T15:26:43.740Z,38.67
2022-11-03T15:29:12.008Z,38.35
2022-11-03T15:31:46.263Z,38.37
2022-11-03T15:34:16.617Z,38.87
2022-11-03T15:36:44.547Z,39.74
2022-11-03T15:39:13.742Z,39.97
2022-11-03T15:41:41.560Z,40.18
2022-11-03T15:44:10.259Z,40.62
2022-11-03T15:46:38.510Z,40.45
2022-11-03T15:49:06.258Z,39.54
2022-11-03T15:51:34.556Z,39.71
2022-11-03T15:54:03.069Z,39.88
2022-11-03T15:56:31.278Z,40.13
2022-11-03T15:58:58.954Z,40.65
2022-11-03T16:01:26.496Z,41.55
2022-11-03T16:03:54.139Z,41.83
2022-11-03T16:06:40.223Z,41.92
2022-11-03T16:09:11.100Z,42.21
2022-11-03T16:11:39.032Z,42.57
2022-11-03T16:14:07.233Z,42.56
2022-11-03T16:16:35.414Z,42.65
2022-11-03T16:19:03.277Z,43.14
2022-11-03T16:21:30.970Z,43.46
2022-11-03T16:23:59.395Z,43.14
2022-11-03T16:26:26.830Z,43.14
2022-11-03T16:28:55.749Z,44.21
2022-11-03T16:31:24.165Z,44.42
2022-11-03T16:33:55.652Z,44.39
2022-11-03T16:36:23.309Z,44.69
2022-11-03T16:38:51.663Z,44.36
2022-11-03T16:41:19.398Z,44.65
2022-11-03T16:43:48.482Z,44.68
2022-11-03T16:46:17.629Z,44.68
2022-11-03T16:48:45.384Z,44.95
2022-11-03T16:51:12.875Z,44.81
2022-11-03T16:53:41.632Z,44.76
2022-11-03T16:56:09.587Z,45.30
2022-11-03T16:58:39.199Z,45.52
2022-11-03T17:01:08.296Z,45.53
2022-11-03T17:03:36.532Z,46.42
2022-11-03T17:06:04.662Z,46.11
2022-11-03T17:11:36.488Z,46.00
2022-11-03T17:14:14.347Z,46.64
2022-11-03T17:16:49.308Z,46.85
2022-11-03T17:19:18.898Z,47.22
2022-11-03T17:21:48.079Z,46.63
2022-11-03T17:24:16.202Z,46.96
2022-11-03T17:26:59.011Z,47.95
2022-11-03T17:29:39.690Z,49.07
2022-11-03T17:32:30.997Z,49.00
2022-11-03T17:34:59.190Z,49.24
2022-11-03T17:37:28.352Z,49.48
2022-11-03T17:39:56.601Z,48.50
2022-11-03T17:42:26.469Z,48.38
2022-11-03T17:44:57.078Z,47.98
2022-11-03T17:47:24.907Z,48.82
2022-11-03T17:49:52.957Z,48.93
2022-11-03T17:52:30.857Z,48.53
2022-11-03T17:54:59.721Z,48.49
2022-11-03T17:57:28.349Z,48.96
2022-11-03T18:00:00.279Z,48.31
2022-11-03T18:02:32.546Z,47.84
2022-11-03T18:05:15.459Z,48.87
2022-11-03T18:07:46.516Z,49.80
2022-11-03T18:10:15.013Z,50.09
2022-11-03T18:13:05.439Z,50.37
2022-11-03T18:15:36.888Z,50.29
2022-11-03T18:18:31.847Z,49.91
2022-11-03T18:20:59.648Z,51.13
2022-11-03T18:23:31.505Z,51.25
2022-11-03T18:26:01.817Z,50.60
2022-11-03T18:28:29.560Z,50.98
2022-11-03T18:30:57.437Z,51.25
2022-11-03T18:33:35.531Z,51.28
2022-11-03T18:36:06.381Z,51.29
2022-11-03T18:38:36.921Z,50.83
2022-11-03T18:41:24.721Z,51.66
2022-11-03T18:43:52.149Z,51.77
2022-11-03T18:46:20.949Z,52.27
2022-11-03T18:48:48.294Z,52.46
2022-11-03T18:51:15.819Z,51.79
2022-11-03T18:53:44.163Z,51.55
2022-11-03T18:56:13.953Z,52.05
2022-11-03T18:58:41.562Z,52.63
2022-11-03T19:01:26.542Z,52.74
2022-11-03T19:03:54.611Z,52.70
2022-11-03T19:06:24.528Z,52.36
2022-11-03T19:08:59.666Z,52.30
2022-11-03T19:11:27.779Z,52.46
2022-11-03T19:13:55.391Z,52.57
2022-11-03T19:16:24.547Z,52.95
2022-11-03T19:18:52.824Z,52.62
2022-11-03T19:21:24.322Z,54.21
2022-11-03T19:23:58.086Z,54.30
2022-11-03T19:26:33.677Z,53.80
2022-11-03T19:29:06.015Z,54.21
2022-11-03T19:31:39.462Z,54.47
2022-11-03T19:34:13.709Z,54.73
2022-11-03T19:36:42.545Z,54.19
2022-11-03T19:39:14.821Z,53.78
2022-11-03T19:42:00.981Z,53.63
2022-11-03T19:44:28.818Z,53.64
2022-11-03T19:46:56.256Z,54.76
2022-11-03T19:49:24.239Z,55.09
2022-11-03T19:51:52.044Z,54.80
2022-11-03T19:54:22.402Z,55.14
2022-11-03T19:56:49.808Z,54.82
2022-11-03T19:59:18.059Z,54.94
2022-11-03T20:01:45.712Z,56.13
2022-11-03T20:04:13.772Z,57.78
2022-11-03T20:06:41.249Z,57.79
2022-11-03T20:09:16.475Z,57.08
2022-11-03T20:11:44.383Z,56.93
2022-11-03T20:14:22.793Z,56.45
2022-11-03T20:16:50.517Z,57.71
2022-11-03T20:19:17.962Z,56.72
2022-11-03T20:21:45.606Z,56.95
2022-11-03T20:24:17.837Z,57.12
2022-11-03T20:26:45.357Z,56.47
2022-11-03T20:29:15.252Z,57.08
2022-11-03T20:31:44.125Z,57.09
2022-11-03T20:34:15.360Z,56.71
2022-11-03T20:36:43.912Z,56.64
2022-11-03T20:39:17.504Z,57.05
2022-11-03T20:41:52.299Z,57.54
2022-11-03T20:44:19.713Z,58.97
2022-11-03T20:46:47.510Z,58.53
2022-11-03T20:49:14.884Z,57.58
2022-11-03T20:51:47.237Z,57.57
2022-11-03T20:54:20.626Z,60.37
2022-11-03T20:56:48.240Z,59.53
2022-11-03T20:59:18.121Z,59.96
2022-11-03T21:01:46.184Z,60.79
2022-11-03T21:04:15.594Z,59.98
2022-11-03T21:06:43.904Z,59.66
2022-11-03T21:09:13.880Z,58.51
2022-11-03T21:11:43.510Z,59.47
2022-11-03T21:14:20.435Z,59.37
2022-11-03T21:17:06.748Z,59.39
2022-11-03T21:19:43.688Z,59.47
2022-11-03T21:25:19.005Z,59.12
2022-11-03T21:27:46.843Z,59.38
2022-11-03T21:30:16.853Z,59.72
2022-11-03T21:32:44.368Z,59.33
2022-11-03T21:35:20.971Z,60.31
2022-11-03T21:37:49.014Z,59.65
2022-11-03T21:40:16.899Z,59.90
2022-11-03T21:43:02.847Z,59.47
2022-11-03T21:45:30.581Z,59.43
2022-11-03T21:48:16.899Z,60.34
2022-11-03T21:50:44.835Z,60.50
2022-11-03T21:53:12.610Z,61.07
2022-11-03T21:55:40.629Z,62.79
2022-11-03T21:58:08.790Z,65.45
2022-11-03T22:00:36.270Z,66.59
2022-11-03T22:03:03.952Z,63.01
2022-11-03T22:05:31.282Z,59.85
2022-11-03T22:07:58.608Z,61.52
2022-11-03T22:10:26.265Z,61.06
2022-11-03T22:12:53.800Z,61.67
2022-11-03T22:15:39.502Z,62.58
2022-11-03T22:18:07.551Z,62.51
2022-11-03T22:20:56.942Z,62.53
2022-11-03T22:23:43.128Z,62.63
2022-11-03T22:26:34.993Z,67.49
2022-11-03T22:29:21.479Z,68.79
2022-11-03T22:31:48.823Z,68.39
2022-11-03T22:34:35.297Z,68.15
2022-11-03T22:37:02.595Z,68.37
2022-11-03T22:39:48.922Z,67.49
2022-11-03T22:42:34.814Z,67.97
2022-11-03T22:45:21.014Z,67.98
2022-11-03T22:47:48.321Z,67.68
2022-11-03T22:50:16.007Z,67.46
2022-11-03T22:52:43.358Z,66.47
2022-11-03T22:55:10.665Z,65.67
2022-11-03T22:57:38.367Z,62.36
2022-11-03T23:00:06.379Z,68.08
2022-11-03T23:02:33.788Z,69.17
2022-11-03T23:05:01.788Z,70.26
2022-11-03T23:07:31.698Z,69.71
2022-11-03T23:10:05.167Z,70.39
2022-11-03T23:12:32.564Z,70.22
2022-11-03T23:15:18.272Z,70.19
2022-11-03T23:18:04.518Z,70.04
2022-11-03T23:20:50.549Z,69.52
2022-11-03T23:23:38.088Z,69.31
2022-11-03T23:26:08.872Z,69.43
2022-11-03T23:28:36.682Z,69.39
2022-11-03T23:31:04.254Z,69.08
2022-11-03T23:33:32.215Z,68.79
2022-11-03T23:36:11.185Z,69.16
2022-11-03T23:38:39.502Z,69.43
2022-11-03T23:41:13.318Z,69.06
2022-11-03T23:43:42.193Z,68.75
2022-11-03T23:46:33.367Z,68.88
2022-11-03T23:49:00.887Z,69.50
2022-11-03T23:51:30.625Z,70.10
2022-11-03T23:53:59.212Z,70.00
2022-11-03T23:56:47.589Z,69.91
2022-11-03T23:59:17.389Z,70.17
